sensor_id;sensor_type;location;lat;lon;timestamp;P1;durP1;ratioP1;P2;durP2;ratioP2
82022;SDS011;71575;49.908;18.356;2024-02-14T00:00:30;38.58;;;21.88;;
82022;SDS011;71575;49.908;18.356;2024-02-14T00:03:51;36.97;;;22.98;;
82022;SDS011;71575;49.908;18.356;2024-02-14T00:06:54;38.63;;;22.00;;
82022;SDS011;71575;49.908;18.356;2024-02-14T00:09:59;37.05;;;22.00;;
82022;SDS011;71575;49.908;18.356;2024-02-14T00:12:59;38.28;;;23.10;;
82022;SDS011;71575;49.908;18.356;2024-02-14T00:16:01;35.72;;;22.40;;
82022;SDS011;71575;49.908;18.356;2024-02-14T00:19:03;35.47;;;21.55;;
82022;SDS011;71575;49.908;18.356;2024-02-14T00:22:10;35.65;;;20.88;;
82022;SDS011;71575;49.908;18.356;2024-02-14T00:25:15;37.45;;;23.23;;
82022;SDS011;71575;49.908;18.356;2024-02-14T00:28:18;38.97;;;25.08;;
82022;SDS011;71575;49.908;18.356;2024-02-14T00:31:23;35.63;;;23.02;;
82022;SDS011;71575;49.908;18.356;2024-02-14T00:34:25;37.90;;;22.23;;
82022;SDS011;71575;49.908;18.356;2024-02-14T00:37:29;35.13;;;22.70;;
82022;SDS011;71575;49.908;18.356;2024-02-14T00:40:30;33.20;;;19.92;;
82022;SDS011;71575;49.908;18.356;2024-02-14T00:43:30;37.90;;;21.38;;
82022;SDS011;71575;49.908;18.356;2024-02-14T00:46:34;36.10;;;18.40;;
82022;SDS011;71575;49.908;18.356;2024-02-14T00:49:36;32.72;;;18.50;;
82022;SDS011;71575;49.908;18.356;2024-02-14T00:52:38;33.03;;;18.48;;
82022;SDS011;71575;49.908;18.356;2024-02-14T00:55:39;31.90;;;18.23;;
82022;SDS011;71575;49.908;18.356;2024-02-14T00:58:42;31.60;;;17.58;;
82022;SDS011;71575;49.908;18.356;2024-02-14T01:01:47;31.70;;;18.27;;
82022;SDS011;71575;49.908;18.356;2024-02-14T01:04:50;34.88;;;18.52;;
82022;SDS011;71575;49.908;18.356;2024-02-14T01:07:50;32.20;;;20.40;;
82022;SDS011;71575;49.908;18.356;2024-02-14T01:10:52;34.70;;;18.60;;
82022;SDS011;71575;49.908;18.356;2024-02-14T01:13:57;35.38;;;19.55;;
82022;SDS011;71575;49.908;18.356;2024-02-14T01:17:00;34.53;;;20.60;;
82022;SDS011;71575;49.908;18.356;2024-02-14T01:20:01;32.42;;;19.83;;
82022;SDS011;71575;49.908;18.356;2024-02-14T01:23:05;36.38;;;21.63;;
82022;SDS011;71575;49.908;18.356;2024-02-14T01:26:05;36.00;;;18.33;;
82022;SDS011;71575;49.908;18.356;2024-02-14T01:29:07;37.13;;;20.98;;
82022;SDS011;71575;49.908;18.356;2024-02-14T01:32:13;35.05;;;20.88;;
82022;SDS011;71575;49.908;18.356;2024-02-14T01:35:16;34.22;;;19.65;;
82022;SDS011;71575;49.908;18.356;2024-02-14T01:38:18;32.95;;;18.50;;
82022;SDS011;71575;49.908;18.356;2024-02-14T01:41:19;32.70;;;19.40;;
82022;SDS011;71575;49.908;18.356;2024-02-14T01:44:22;34.22;;;19.30;;
82022;SDS011;71575;49.908;18.356;2024-02-14T01:47:23;32.70;;;17.42;;
82022;SDS011;71575;49.908;18.356;2024-02-14T01:50:28;31.10;;;16.65;;
82022;SDS011;71575;49.908;18.356;2024-02-14T01:53:30;28.33;;;18.38;;
82022;SDS011;71575;49.908;18.356;2024-02-14T01:56:31;31.98;;;18.55;;
82022;SDS011;71575;49.908;18.356;2024-02-14T01:59:33;29.55;;;15.30;;
82022;SDS011;71575;49.908;18.356;2024-02-14T02:02:34;31.02;;;17.73;;
82022;SDS011;71575;49.908;18.356;2024-02-14T02:05:46;31.10;;;16.75;;
82022;SDS011;71575;49.908;18.356;2024-02-14T02:08:50;30.00;;;18.15;;
82022;SDS011;71575;49.908;18.356;2024-02-14T02:11:52;36.15;;;20.67;;
82022;SDS011;71575;49.908;18.356;2024-02-14T02:14:53;36.15;;;19.35;;
82022;SDS011;71575;49.908;18.356;2024-02-14T02:17:55;31.83;;;16.65;;
82022;SDS011;71575;49.908;18.356;2024-02-14T02:20:55;30.75;;;19.13;;
82022;SDS011;71575;49.908;18.356;2024-02-14T02:23:57;32.42;;;19.98;;
82022;SDS011;71575;49.908;18.356;2024-02-14T02:26:59;33.85;;;20.27;;
82022;SDS011;71575;49.908;18.356;2024-02-14T02:30:02;32.00;;;17.90;;
82022;SDS011;71575;49.908;18.356;2024-02-14T02:33:23;32.20;;;19.13;;
82022;SDS011;71575;49.908;18.356;2024-02-14T02:36:24;30.20;;;17.23;;
82022;SDS011;71575;49.908;18.356;2024-02-14T02:39:30;33.95;;;18.98;;
82022;SDS011;71575;49.908;18.356;2024-02-14T02:42:32;27.30;;;15.45;;
82022;SDS011;71575;49.908;18.356;2024-02-14T02:45:33;32.58;;;19.10;;
82022;SDS011;71575;49.908;18.356;2024-02-14T02:48:35;28.63;;;16.45;;
82022;SDS011;71575;49.908;18.356;2024-02-14T02:51:39;29.13;;;17.45;;
82022;SDS011;71575;49.908;18.356;2024-02-14T02:54:41;29.70;;;17.20;;
82022;SDS011;71575;49.908;18.356;2024-02-14T02:57:41;28.30;;;14.23;;
82022;SDS011;71575;49.908;18.356;2024-02-14T03:00:44;30.88;;;19.25;;
82022;SDS011;71575;49.908;18.356;2024-02-14T03:03:45;26.67;;;16.15;;
82022;SDS011;71575;49.908;18.356;2024-02-14T03:06:48;30.35;;;15.95;;
82022;SDS011;71575;49.908;18.356;2024-02-14T03:09:49;26.17;;;15.25;;
82022;SDS011;71575;49.908;18.356;2024-02-14T03:12:50;25.95;;;15.60;;
82022;SDS011;71575;49.908;18.356;2024-02-14T03:15:51;28.55;;;15.25;;
82022;SDS011;71575;49.908;18.356;2024-02-14T03:18:53;26.98;;;13.98;;
82022;SDS011;71575;49.908;18.356;2024-02-14T03:21:55;28.02;;;15.13;;
82022;SDS011;71575;49.908;18.356;2024-02-14T03:25:04;26.60;;;15.10;;
82022;SDS011;71575;49.908;18.356;2024-02-14T03:28:05;27.00;;;14.40;;
82022;SDS011;71575;49.908;18.356;2024-02-14T03:31:06;30.02;;;16.65;;
82022;SDS011;71575;49.908;18.356;2024-02-14T03:34:07;28.00;;;15.15;;
82022;SDS011;71575;49.908;18.356;2024-02-14T03:37:08;29.35;;;14.40;;
82022;SDS011;71575;49.908;18.356;2024-02-14T03:40:08;26.80;;;12.98;;
82022;SDS011;71575;49.908;18.356;2024-02-14T03:43:11;30.40;;;14.70;;
82022;SDS011;71575;49.908;18.356;2024-02-14T03:46:13;24.35;;;12.00;;
82022;SDS011;71575;49.908;18.356;2024-02-14T03:49:14;24.95;;;13.20;;
82022;SDS011;71575;49.908;18.356;2024-02-14T03:52:14;25.90;;;16.08;;
82022;SDS011;71575;49.908;18.356;2024-02-14T03:55:15;29.05;;;17.80;;
82022;SDS011;71575;49.908;18.356;2024-02-14T03:58:15;27.95;;;16.00;;
82022;SDS011;71575;49.908;18.356;2024-02-14T04:01:16;29.65;;;17.25;;
82022;SDS011;71575;49.908;18.356;2024-02-14T04:04:17;27.88;;;15.43;;
82022;SDS011;71575;49.908;18.356;2024-02-14T04:07:19;23.45;;;13.95;;
82022;SDS011;71575;49.908;18.356;2024-02-14T04:10:21;28.05;;;18.35;;
82022;SDS011;71575;49.908;18.356;2024-02-14T04:13:22;27.77;;;16.70;;
82022;SDS011;71575;49.908;18.356;2024-02-14T04:16:27;28.35;;;16.27;;
82022;SDS011;71575;49.908;18.356;2024-02-14T04:19:31;29.48;;;14.60;;
82022;SDS011;71575;49.908;18.356;2024-02-14T04:22:33;33.78;;;17.67;;
82022;SDS011;71575;49.908;18.356;2024-02-14T04:25:35;29.58;;;15.98;;
82022;SDS011;71575;49.908;18.356;2024-02-14T04:28:38;28.08;;;13.88;;
82022;SDS011;71575;49.908;18.356;2024-02-14T04:31:40;32.42;;;18.90;;
82022;SDS011;71575;49.908;18.356;2024-02-14T04:34:40;28.88;;;16.40;;
82022;SDS011;71575;49.908;18.356;2024-02-14T04:40:49;33.55;;;16.40;;
82022;SDS011;71575;49.908;18.356;2024-02-14T04:43:50;30.52;;;17.88;;
82022;SDS011;71575;49.908;18.356;2024-02-14T04:46:52;30.00;;;16.70;;
82022;SDS011;71575;49.908;18.356;2024-02-14T04:49:53;29.08;;;16.45;;
82022;SDS011;71575;49.908;18.356;2024-02-14T04:55:55;33.50;;;17.83;;
82022;SDS011;71575;49.908;18.356;2024-02-14T04:58:56;33.22;;;17.23;;
82022;SDS011;71575;49.908;18.356;2024-02-14T05:01:57;28.35;;;16.60;;
82022;SDS011;71575;49.908;18.356;2024-02-14T05:05:00;28.63;;;17.13;;
82022;SDS011;71575;49.908;18.356;2024-02-14T05:08:04;34.33;;;17.05;;
82022;SDS011;71575;49.908;18.356;2024-02-14T05:14:06;32.83;;;16.58;;
82022;SDS011;71575;49.908;18.356;2024-02-14T05:17:08;28.00;;;15.63;;
82022;SDS011;71575;49.908;18.356;2024-02-14T05:20:09;28.23;;;17.38;;
82022;SDS011;71575;49.908;18.356;2024-02-14T05:23:15;26.10;;;13.50;;
82022;SDS011;71575;49.908;18.356;2024-02-14T05:26:20;29.70;;;16.35;;
82022;SDS011;71575;49.908;18.356;2024-02-14T05:29:24;28.42;;;15.90;;
82022;SDS011;71575;49.908;18.356;2024-02-14T05:35:25;30.08;;;15.35;;
82022;SDS011;71575;49.908;18.356;2024-02-14T05:38:28;26.33;;;15.23;;
82022;SDS011;71575;49.908;18.356;2024-02-14T05:44:30;27.00;;;14.70;;
82022;SDS011;71575;49.908;18.356;2024-02-14T05:50:33;21.50;;;11.70;;
82022;SDS011;71575;49.908;18.356;2024-02-14T05:53:36;26.17;;;14.23;;
82022;SDS011;71575;49.908;18.356;2024-02-14T05:56:39;26.58;;;12.48;;
82022;SDS011;71575;49.908;18.356;2024-02-14T06:02:40;25.65;;;12.75;;
82022;SDS011;71575;49.908;18.356;2024-02-14T06:05:41;22.58;;;10.63;;
82022;SDS011;71575;49.908;18.356;2024-02-14T06:08:43;26.50;;;14.77;;
82022;SDS011;71575;49.908;18.356;2024-02-14T06:11:49;24.92;;;17.45;;
82022;SDS011;71575;49.908;18.356;2024-02-14T06:17:53;24.80;;;15.05;;
82022;SDS011;71575;49.908;18.356;2024-02-14T06:20:56;30.70;;;11.70;;
82022;SDS011;71575;49.908;18.356;2024-02-14T06:26:58;27.58;;;14.02;;
82022;SDS011;71575;49.908;18.356;2024-02-14T06:30:00;28.23;;;14.85;;
82022;SDS011;71575;49.908;18.356;2024-02-14T06:33:01;28.02;;;12.88;;
82022;SDS011;71575;49.908;18.356;2024-02-14T06:39:08;29.38;;;14.80;;
82022;SDS011;71575;49.908;18.356;2024-02-14T06:45:09;28.40;;;15.60;;
82022;SDS011;71575;49.908;18.356;2024-02-14T06:48:10;30.67;;;16.42;;
82022;SDS011;71575;49.908;18.356;2024-02-14T06:51:11;28.95;;;13.38;;
82022;SDS011;71575;49.908;18.356;2024-02-14T06:54:11;27.83;;;14.32;;
82022;SDS011;71575;49.908;18.356;2024-02-14T06:57:16;26.10;;;14.23;;
82022;SDS011;71575;49.908;18.356;2024-02-14T07:00:17;27.30;;;11.38;;
82022;SDS011;71575;49.908;18.356;2024-02-14T07:03:20;27.65;;;15.57;;
82022;SDS011;71575;49.908;18.356;2024-02-14T07:06:21;28.95;;;14.63;;
82022;SDS011;71575;49.908;18.356;2024-02-14T07:09:24;28.98;;;16.35;;
82022;SDS011;71575;49.908;18.356;2024-02-14T07:12:26;34.15;;;16.23;;
82022;SDS011;71575;49.908;18.356;2024-02-14T07:15:28;28.42;;;15.40;;
82022;SDS011;71575;49.908;18.356;2024-02-14T07:18:33;27.55;;;16.83;;
82022;SDS011;71575;49.908;18.356;2024-02-14T07:21:38;29.15;;;18.75;;
82022;SDS011;71575;49.908;18.356;2024-02-14T07:24:39;29.25;;;16.10;;
82022;SDS011;71575;49.908;18.356;2024-02-14T07:27:42;28.83;;;17.30;;
82022;SDS011;71575;49.908;18.356;2024-02-14T07:30:48;31.73;;;17.60;;
82022;SDS011;71575;49.908;18.356;2024-02-14T07:33:51;28.38;;;16.70;;
82022;SDS011;71575;49.908;18.356;2024-02-14T07:36:52;25.77;;;15.45;;
82022;SDS011;71575;49.908;18.356;2024-02-14T07:39:54;30.75;;;16.05;;
82022;SDS011;71575;49.908;18.356;2024-02-14T07:42:55;29.88;;;16.73;;
82022;SDS011;71575;49.908;18.356;2024-02-14T07:45:56;32.78;;;17.08;;
82022;SDS011;71575;49.908;18.356;2024-02-14T07:48:57;34.38;;;18.25;;
82022;SDS011;71575;49.908;18.356;2024-02-14T07:52:00;32.35;;;18.10;;
82022;SDS011;71575;49.908;18.356;2024-02-14T07:55:00;34.22;;;18.25;;
82022;SDS011;71575;49.908;18.356;2024-02-14T07:58:04;34.38;;;16.48;;
82022;SDS011;71575;49.908;18.356;2024-02-14T08:01:08;34.55;;;15.27;;
82022;SDS011;71575;49.908;18.356;2024-02-14T08:04:08;26.38;;;12.93;;
82022;SDS011;71575;49.908;18.356;2024-02-14T08:07:09;23.38;;;12.80;;
82022;SDS011;71575;49.908;18.356;2024-02-14T08:10:10;23.67;;;12.68;;
82022;SDS011;71575;49.908;18.356;2024-02-14T08:13:11;22.27;;;12.38;;
82022;SDS011;71575;49.908;18.356;2024-02-14T08:16:12;23.35;;;12.80;;
82022;SDS011;71575;49.908;18.356;2024-02-14T08:19:13;21.27;;;13.07;;
82022;SDS011;71575;49.908;18.356;2024-02-14T08:22:13;22.92;;;12.57;;
82022;SDS011;71575;49.908;18.356;2024-02-14T08:25:33;17.98;;;10.52;;
82022;SDS011;71575;49.908;18.356;2024-02-14T08:28:38;19.17;;;11.20;;
82022;SDS011;71575;49.908;18.356;2024-02-14T08:31:38;19.27;;;10.77;;
82022;SDS011;71575;49.908;18.356;2024-02-14T08:34:45;19.55;;;11.25;;
82022;SDS011;71575;49.908;18.356;2024-02-14T08:37:45;19.90;;;11.13;;
82022;SDS011;71575;49.908;18.356;2024-02-14T08:40:49;19.48;;;11.27;;
82022;SDS011;71575;49.908;18.356;2024-02-14T08:43:51;16.90;;;10.77;;
82022;SDS011;71575;49.908;18.356;2024-02-14T08:46:54;20.00;;;10.95;;
82022;SDS011;71575;49.908;18.356;2024-02-14T08:49:56;16.52;;;9.48;;
82022;SDS011;71575;49.908;18.356;2024-02-14T08:53:02;19.48;;;10.70;;
82022;SDS011;71575;49.908;18.356;2024-02-14T08:56:03;18.77;;;9.18;;
82022;SDS011;71575;49.908;18.356;2024-02-14T08:59:08;18.08;;;9.73;;
82022;SDS011;71575;49.908;18.356;2024-02-14T09:02:09;19.58;;;10.80;;
82022;SDS011;71575;49.908;18.356;2024-02-14T09:05:10;18.63;;;9.38;;
82022;SDS011;71575;49.908;18.356;2024-02-14T09:08:10;15.73;;;8.25;;
82022;SDS011;71575;49.908;18.356;2024-02-14T09:11:17;17.38;;;7.93;;
82022;SDS011;71575;49.908;18.356;2024-02-14T09:14:18;14.80;;;7.55;;
82022;SDS011;71575;49.908;18.356;2024-02-14T09:17:20;14.63;;;7.97;;
82022;SDS011;71575;49.908;18.356;2024-02-14T09:20:23;12.70;;;6.75;;
82022;SDS011;71575;49.908;18.356;2024-02-14T09:23:25;15.75;;;7.20;;
82022;SDS011;71575;49.908;18.356;2024-02-14T09:26:29;14.27;;;8.23;;
82022;SDS011;71575;49.908;18.356;2024-02-14T09:29:30;14.30;;;5.93;;
82022;SDS011;71575;49.908;18.356;2024-02-14T09:32:31;16.20;;;5.35;;
82022;SDS011;71575;49.908;18.356;2024-02-14T09:35:37;11.18;;;6.38;;
82022;SDS011;71575;49.908;18.356;2024-02-14T09:38:38;12.80;;;5.18;;
82022;SDS011;71575;49.908;18.356;2024-02-14T09:41:40;12.55;;;6.80;;
82022;SDS011;71575;49.908;18.356;2024-02-14T09:44:42;12.00;;;6.50;;
82022;SDS011;71575;49.908;18.356;2024-02-14T09:47:47;14.30;;;6.80;;
82022;SDS011;71575;49.908;18.356;2024-02-14T09:50:48;11.25;;;7.28;;
82022;SDS011;71575;49.908;18.356;2024-02-14T09:53:50;11.07;;;4.18;;
82022;SDS011;71575;49.908;18.356;2024-02-14T09:56:51;13.93;;;6.90;;
82022;SDS011;71575;49.908;18.356;2024-02-14T09:59:53;11.40;;;6.32;;
82022;SDS011;71575;49.908;18.356;2024-02-14T10:03:05;11.27;;;6.47;;
82022;SDS011;71575;49.908;18.356;2024-02-14T10:06:07;10.10;;;6.10;;
82022;SDS011;71575;49.908;18.356;2024-02-14T10:09:08;12.32;;;5.70;;
82022;SDS011;71575;49.908;18.356;2024-02-14T10:12:09;11.55;;;5.95;;
82022;SDS011;71575;49.908;18.356;2024-02-14T10:15:12;12.98;;;6.13;;
82022;SDS011;71575;49.908;18.356;2024-02-14T10:18:14;13.35;;;6.30;;
82022;SDS011;71575;49.908;18.356;2024-02-14T10:21:15;12.88;;;5.82;;
82022;SDS011;71575;49.908;18.356;2024-02-14T10:24:17;11.45;;;6.28;;
82022;SDS011;71575;49.908;18.356;2024-02-14T10:27:18;10.25;;;5.78;;
82022;SDS011;71575;49.908;18.356;2024-02-14T10:30:20;12.88;;;5.75;;
82022;SDS011;71575;49.908;18.356;2024-02-14T10:33:30;12.05;;;6.43;;
82022;SDS011;71575;49.908;18.356;2024-02-14T10:36:31;9.45;;;4.93;;
82022;SDS011;71575;49.908;18.356;2024-02-14T10:39:32;11.20;;;5.75;;
82022;SDS011;71575;49.908;18.356;2024-02-14T10:42:33;8.50;;;3.13;;
82022;SDS011;71575;49.908;18.356;2024-02-14T10:45:36;11.10;;;4.75;;
82022;SDS011;71575;49.908;18.356;2024-02-14T10:48:37;9.80;;;5.15;;
82022;SDS011;71575;49.908;18.356;2024-02-14T10:51:39;10.20;;;4.88;;
82022;SDS011;71575;49.908;18.356;2024-02-14T10:54:41;7.72;;;2.80;;
82022;SDS011;71575;49.908;18.356;2024-02-14T10:57:43;10.82;;;4.72;;
82022;SDS011;71575;49.908;18.356;2024-02-14T11:00:44;8.95;;;5.00;;
82022;SDS011;71575;49.908;18.356;2024-02-14T11:03:46;9.70;;;4.80;;
82022;SDS011;71575;49.908;18.356;2024-02-14T11:06:51;9.55;;;4.63;;
82022;SDS011;71575;49.908;18.356;2024-02-14T11:13:10;10.52;;;5.63;;
82022;SDS011;71575;49.908;18.356;2024-02-14T11:16:12;10.98;;;5.03;;
82022;SDS011;71575;49.908;18.356;2024-02-14T11:19:16;11.65;;;4.90;;
82022;SDS011;71575;49.908;18.356;2024-02-14T11:22:20;9.30;;;4.60;;
82022;SDS011;71575;49.908;18.356;2024-02-14T11:25:30;9.05;;;3.15;;
82022;SDS011;71575;49.908;18.356;2024-02-14T11:28:31;12.02;;;4.53;;
82022;SDS011;71575;49.908;18.356;2024-02-14T11:31:37;10.30;;;4.93;;
82022;SDS011;71575;49.908;18.356;2024-02-14T11:34:39;9.32;;;3.15;;
82022;SDS011;71575;49.908;18.356;2024-02-14T11:37:41;8.95;;;2.80;;
82022;SDS011;71575;49.908;18.356;2024-02-14T11:40:42;8.30;;;5.03;;
82022;SDS011;71575;49.908;18.356;2024-02-14T11:43:50;8.85;;;4.68;;
82022;SDS011;71575;49.908;18.356;2024-02-14T11:46:52;8.45;;;4.32;;
82022;SDS011;71575;49.908;18.356;2024-02-14T11:49:55;7.20;;;3.97;;
82022;SDS011;71575;49.908;18.356;2024-02-14T11:52:58;11.65;;;3.92;;
82022;SDS011;71575;49.908;18.356;2024-02-14T11:56:00;8.18;;;4.45;;
82022;SDS011;71575;49.908;18.356;2024-02-14T11:59:07;8.75;;;4.85;;
82022;SDS011;71575;49.908;18.356;2024-02-14T12:02:08;7.95;;;3.15;;
82022;SDS011;71575;49.908;18.356;2024-02-14T12:05:08;8.05;;;3.38;;
82022;SDS011;71575;49.908;18.356;2024-02-14T12:08:10;10.63;;;4.70;;
82022;SDS011;71575;49.908;18.356;2024-02-14T12:11:12;6.95;;;3.83;;
82022;SDS011;71575;49.908;18.356;2024-02-14T12:14:13;7.97;;;2.50;;
82022;SDS011;71575;49.908;18.356;2024-02-14T12:17:19;9.18;;;4.32;;
82022;SDS011;71575;49.908;18.356;2024-02-14T12:20:25;9.75;;;3.92;;
82022;SDS011;71575;49.908;18.356;2024-02-14T12:23:25;6.28;;;2.42;;
82022;SDS011;71575;49.908;18.356;2024-02-14T12:26:27;8.05;;;4.15;;
82022;SDS011;71575;49.908;18.356;2024-02-14T12:29:27;7.22;;;3.75;;
82022;SDS011;71575;49.908;18.356;2024-02-14T12:32:36;7.88;;;5.95;;
82022;SDS011;71575;49.908;18.356;2024-02-14T12:35:46;8.68;;;4.53;;
82022;SDS011;71575;49.908;18.356;2024-02-14T12:38:48;7.40;;;3.35;;
82022;SDS011;71575;49.908;18.356;2024-02-14T12:41:49;7.40;;;3.40;;
82022;SDS011;71575;49.908;18.356;2024-02-14T12:44:54;8.70;;;3.03;;
82022;SDS011;71575;49.908;18.356;2024-02-14T12:47:58;6.85;;;2.97;;
82022;SDS011;71575;49.908;18.356;2024-02-14T12:50:59;9.20;;;1.67;;
82022;SDS011;71575;49.908;18.356;2024-02-14T12:54:01;6.75;;;3.03;;
82022;SDS011;71575;49.908;18.356;2024-02-14T12:57:02;6.97;;;3.05;;
82022;SDS011;71575;49.908;18.356;2024-02-14T13:00:04;6.55;;;3.53;;
82022;SDS011;71575;49.908;18.356;2024-02-14T13:03:05;10.18;;;3.15;;
82022;SDS011;71575;49.908;18.356;2024-02-14T13:06:06;7.38;;;3.63;;
82022;SDS011;71575;49.908;18.356;2024-02-14T13:09:07;7.22;;;3.58;;
82022;SDS011;71575;49.908;18.356;2024-02-14T13:12:08;7.93;;;2.13;;
82022;SDS011;71575;49.908;18.356;2024-02-14T13:15:10;6.55;;;3.13;;
82022;SDS011;71575;49.908;18.356;2024-02-14T13:18:11;9.27;;;3.65;;
82022;SDS011;71575;49.908;18.356;2024-02-14T13:21:13;6.95;;;3.28;;
82022;SDS011;71575;49.908;18.356;2024-02-14T13:24:14;7.53;;;3.50;;
82022;SDS011;71575;49.908;18.356;2024-02-14T13:27:15;7.35;;;2.92;;
82022;SDS011;71575;49.908;18.356;2024-02-14T13:30:16;9.07;;;3.33;;
82022;SDS011;71575;49.908;18.356;2024-02-14T13:33:17;5.28;;;2.42;;
82022;SDS011;71575;49.908;18.356;2024-02-14T13:36:18;7.85;;;2.70;;
82022;SDS011;71575;49.908;18.356;2024-02-14T13:39:19;4.97;;;2.20;;
82022;SDS011;71575;49.908;18.356;2024-02-14T13:42:19;6.20;;;2.30;;
82022;SDS011;71575;49.908;18.356;2024-02-14T13:45:20;6.57;;;2.28;;
82022;SDS011;71575;49.908;18.356;2024-02-14T13:48:21;5.88;;;2.60;;
82022;SDS011;71575;49.908;18.356;2024-02-14T13:51:27;6.40;;;2.85;;
82022;SDS011;71575;49.908;18.356;2024-02-14T13:54:27;7.00;;;2.70;;
82022;SDS011;71575;49.908;18.356;2024-02-14T13:57:29;6.72;;;3.50;;
82022;SDS011;71575;49.908;18.356;2024-02-14T14:00:29;7.82;;;3.33;;
82022;SDS011;71575;49.908;18.356;2024-02-14T14:03:37;7.78;;;2.25;;
82022;SDS011;71575;49.908;18.356;2024-02-14T14:06:39;7.75;;;4.35;;
82022;SDS011;71575;49.908;18.356;2024-02-14T14:09:41;9.90;;;4.03;;
82022;SDS011;71575;49.908;18.356;2024-02-14T14:12:56;8.00;;;4.32;;
82022;SDS011;71575;49.908;18.356;2024-02-14T14:15:59;7.50;;;3.90;;
82022;SDS011;71575;49.908;18.356;2024-02-14T14:19:00;6.20;;;2.30;;
82022;SDS011;71575;49.908;18.356;2024-02-14T14:22:01;10.57;;;5.15;;
82022;SDS011;71575;49.908;18.356;2024-02-14T14:25:04;8.88;;;4.25;;
82022;SDS011;71575;49.908;18.356;2024-02-14T14:28:05;10.80;;;4.32;;
82022;SDS011;71575;49.908;18.356;2024-02-14T14:31:06;7.47;;;3.40;;
82022;SDS011;71575;49.908;18.356;2024-02-14T14:34:09;5.88;;;2.25;;
82022;SDS011;71575;49.908;18.356;2024-02-14T14:37:09;9.00;;;5.78;;
82022;SDS011;71575;49.908;18.356;2024-02-14T14:40:10;9.45;;;4.47;;
82022;SDS011;71575;49.908;18.356;2024-02-14T14:43:12;9.98;;;5.03;;
82022;SDS011;71575;49.908;18.356;2024-02-14T14:46:14;10.25;;;4.25;;
82022;SDS011;71575;49.908;18.356;2024-02-14T14:49:15;8.38;;;4.32;;
82022;SDS011;71575;49.908;18.356;2024-02-14T14:52:16;7.40;;;3.78;;
82022;SDS011;71575;49.908;18.356;2024-02-14T14:55:17;11.02;;;4.25;;
82022;SDS011;71575;49.908;18.356;2024-02-14T14:58:20;7.15;;;3.63;;
82022;SDS011;71575;49.908;18.356;2024-02-14T15:01:22;9.85;;;5.00;;
82022;SDS011;71575;49.908;18.356;2024-02-14T15:04:24;7.32;;;4.43;;
82022;SDS011;71575;49.908;18.356;2024-02-14T15:07:30;8.13;;;6.05;;
82022;SDS011;71575;49.908;18.356;2024-02-14T15:10:35;10.05;;;4.57;;
82022;SDS011;71575;49.908;18.356;2024-02-14T15:13:36;9.95;;;3.05;;
82022;SDS011;71575;49.908;18.356;2024-02-14T15:16:38;8.00;;;3.17;;
82022;SDS011;71575;49.908;18.356;2024-02-14T15:19:39;9.13;;;4.05;;
82022;SDS011;71575;49.908;18.356;2024-02-14T15:22:41;9.25;;;4.68;;
82022;SDS011;71575;49.908;18.356;2024-02-14T15:25:42;9.13;;;4.40;;
82022;SDS011;71575;49.908;18.356;2024-02-14T15:28:43;10.48;;;5.53;;
82022;SDS011;71575;49.908;18.356;2024-02-14T15:31:47;9.98;;;4.63;;
82022;SDS011;71575;49.908;18.356;2024-02-14T15:34:59;9.38;;;4.53;;
82022;SDS011;71575;49.908;18.356;2024-02-14T15:37:59;10.68;;;4.97;;
82022;SDS011;71575;49.908;18.356;2024-02-14T15:41:01;11.88;;;5.00;;
82022;SDS011;71575;49.908;18.356;2024-02-14T15:44:02;10.05;;;5.07;;
82022;SDS011;71575;49.908;18.356;2024-02-14T15:47:04;10.05;;;5.05;;
82022;SDS011;71575;49.908;18.356;2024-02-14T15:50:06;11.25;;;5.57;;
82022;SDS011;71575;49.908;18.356;2024-02-14T15:53:09;10.57;;;6.05;;
82022;SDS011;71575;49.908;18.356;2024-02-14T15:56:20;10.88;;;6.38;;
82022;SDS011;71575;49.908;18.356;2024-02-14T15:59:24;12.02;;;7.10;;
82022;SDS011;71575;49.908;18.356;2024-02-14T16:02:34;17.92;;;7.45;;
82022;SDS011;71575;49.908;18.356;2024-02-14T16:05:36;11.95;;;7.32;;
82022;SDS011;71575;49.908;18.356;2024-02-14T16:08:37;15.25;;;8.30;;
82022;SDS011;71575;49.908;18.356;2024-02-14T16:11:39;15.63;;;8.60;;
82022;SDS011;71575;49.908;18.356;2024-02-14T16:14:40;13.68;;;7.35;;
82022;SDS011;71575;49.908;18.356;2024-02-14T16:17:50;12.25;;;6.03;;
82022;SDS011;71575;49.908;18.356;2024-02-14T16:20:51;13.00;;;8.00;;
82022;SDS011;71575;49.908;18.356;2024-02-14T16:23:52;14.80;;;7.70;;
82022;SDS011;71575;49.908;18.356;2024-02-14T16:26:59;13.68;;;7.35;;
82022;SDS011;71575;49.908;18.356;2024-02-14T16:30:04;16.38;;;7.38;;
82022;SDS011;71575;49.908;18.356;2024-02-14T16:33:13;14.75;;;8.65;;
82022;SDS011;71575;49.908;18.356;2024-02-14T16:36:25;14.60;;;9.30;;
82022;SDS011;71575;49.908;18.356;2024-02-14T16:39:26;14.00;;;8.20;;
82022;SDS011;71575;49.908;18.356;2024-02-14T16:42:43;13.15;;;7.15;;
82022;SDS011;71575;49.908;18.356;2024-02-14T16:45:43;15.55;;;8.15;;
82022;SDS011;71575;49.908;18.356;2024-02-14T16:48:45;13.90;;;8.50;;
82022;SDS011;71575;49.908;18.356;2024-02-14T16:51:46;15.88;;;8.98;;
82022;SDS011;71575;49.908;18.356;2024-02-14T16:54:47;17.25;;;9.80;;
82022;SDS011;71575;49.908;18.356;2024-02-14T16:57:48;16.52;;;9.75;;
82022;SDS011;71575;49.908;18.356;2024-02-14T17:00:48;16.80;;;8.30;;
82022;SDS011;71575;49.908;18.356;2024-02-14T17:03:52;12.15;;;6.07;;
82022;SDS011;71575;49.908;18.356;2024-02-14T17:06:53;13.73;;;7.47;;
82022;SDS011;71575;49.908;18.356;2024-02-14T17:09:59;14.60;;;7.43;;
82022;SDS011;71575;49.908;18.356;2024-02-14T17:13:00;14.15;;;8.10;;
82022;SDS011;71575;49.908;18.356;2024-02-14T17:16:01;13.77;;;7.47;;
82022;SDS011;71575;49.908;18.356;2024-02-14T17:19:03;15.13;;;6.68;;
82022;SDS011;71575;49.908;18.356;2024-02-14T17:22:10;14.35;;;8.88;;
82022;SDS011;71575;49.908;18.356;2024-02-14T17:25:11;13.85;;;7.20;;
82022;SDS011;71575;49.908;18.356;2024-02-14T17:28:17;12.63;;;6.53;;
82022;SDS011;71575;49.908;18.356;2024-02-14T17:31:24;12.07;;;6.45;;
82022;SDS011;71575;49.908;18.356;2024-02-14T17:34:33;12.57;;;6.38;;
82022;SDS011;71575;49.908;18.356;2024-02-14T17:37:41;12.30;;;6.28;;
82022;SDS011;71575;49.908;18.356;2024-02-14T17:40:44;13.85;;;6.68;;
82022;SDS011;71575;49.908;18.356;2024-02-14T17:43:45;11.43;;;6.03;;
82022;SDS011;71575;49.908;18.356;2024-02-14T17:46:46;10.77;;;6.57;;
82022;SDS011;71575;49.908;18.356;2024-02-14T17:49:47;14.50;;;6.95;;
82022;SDS011;71575;49.908;18.356;2024-02-14T17:52:48;12.10;;;8.52;;
82022;SDS011;71575;49.908;18.356;2024-02-14T17:55:48;16.63;;;6.78;;
82022;SDS011;71575;49.908;18.356;2024-02-14T17:58:52;10.80;;;5.60;;
82022;SDS011;71575;49.908;18.356;2024-02-14T18:01:53;12.93;;;6.68;;
82022;SDS011;71575;49.908;18.356;2024-02-14T18:04:53;12.25;;;7.47;;
82022;SDS011;71575;49.908;18.356;2024-02-14T18:07:54;11.80;;;6.45;;
82022;SDS011;71575;49.908;18.356;2024-02-14T18:10:55;12.57;;;6.38;;
82022;SDS011;71575;49.908;18.356;2024-02-14T18:13:56;12.70;;;5.35;;
82022;SDS011;71575;49.908;18.356;2024-02-14T18:16:57;11.50;;;6.47;;
82022;SDS011;71575;49.908;18.356;2024-02-14T18:19:58;10.50;;;6.95;;